Time;durP1;ratioP1;P1;durP2;ratioP2;P2;SDS_P1;SDS_P2;PMS_P1;PMS_P2;Temp;Humidity;BMP_temperature;BMP_pressure;BME280_temperature;BME280_humidity;BME280_pressure;Samples;Min_cycle;Max_cycle;Signal;HPM_P1;HPM_P2
2021/12/02 00:01:39;;;;;;;3.05;1.10;;;6.50;1.00;;;;;;5099114;27;20325;-85
2021/12/02 00:04:09;;;;;;;3.50;1.15;;;6.50;1.00;;;;;;5114921;27;20268;-87
2021/12/02 00:06:45;;;;;;;2.55;1.00;;;6.50;1.00;;;;;;5111210;27;20269;-84
2021/12/02 00:09:13;;;;;;;3.45;1.05;;;6.50;1.00;;;;;;5126870;27;20226;-86
2021/12/02 00:11:42;;;;;;;2.65;1.08;;;6.50;1.00;;;;;;5107515;27;20222;-86
2021/12/02 00:14:13;;;;;;;2.55;0.93;;;6.50;1.00;;;;;;5114388;27;20220;-84
2021/12/02 00:16:52;;;;;;;3.90;0.80;;;6.50;1.00;;;;;;5107379;27;20218;-85
2021/12/02 00:22:06;;;;;;;2.05;0.88;;;6.50;1.00;;;;;;5121762;27;20247;-85
2021/12/02 00:24:36;;;;;;;2.53;0.85;;;6.40;1.00;;;;;;5120765;27;20274;-86
2021/12/02 00:27:10;;;;;;;2.25;1.00;;;6.50;1.00;;;;;;5116293;27;20230;-85
2021/12/02 00:29:39;;;;;;;3.15;1.00;;;6.40;1.00;;;;;;5108793;27;20316;-85
2021/12/02 00:32:10;;;;;;;4.05;1.17;;;6.40;1.00;;;;;;5114137;27;20337;-84
2021/12/02 00:34:44;;;;;;;3.60;1.40;;;6.40;1.00;;;;;;5121325;27;20299;-86
2021/12/02 00:37:14;;;;;;;1.67;0.80;;;6.30;1.00;;;;;;5117592;27;20211;-84
2021/12/02 00:39:41;;;;;;;2.47;1.00;;;6.30;1.00;;;;;;5099373;27;20230;-84
2021/12/02 00:42:11;;;;;;;6.38;1.13;;;6.30;1.00;;;;;;5112310;27;20307;-86
2021/12/02 00:44:39;;;;;;;2.65;1.10;;;6.30;1.00;;;;;;5103978;27;20223;-85
2021/12/02 00:47:12;;;;;;;3.00;0.80;;;6.30;1.00;;;;;;5118576;27;20235;-84
2021/12/02 00:49:48;;;;;;;6.47;1.60;;;6.30;1.00;;;;;;5140211;27;20195;-84
2021/12/02 00:52:19;;;;;;;2.97;1.55;;;6.30;1.00;;;;;;5147703;27;20272;-84
2021/12/02 00:54:48;;;;;;;3.60;1.17;;;6.30;1.00;;;;;;5119749;27;20227;-84
2021/12/02 00:57:19;;;;;;;2.35;0.70;;;6.20;1.00;;;;;;5120628;27;20238;-86
2021/12/02 00:59:51;;;;;;;2.55;1.00;;;6.00;1.00;;;;;;5100423;27;20234;-86
2021/12/02 01:02:22;;;;;;;2.35;0.80;;;5.80;1.00;;;;;;5121264;27;20222;-85
2021/12/02 01:04:51;;;;;;;4.75;1.10;;;5.40;1.00;;;;;;5122687;27;20214;-87
2021/12/02 01:07:18;;;;;;;2.00;0.90;;;5.20;1.00;;;;;;5115035;27;20360;-85
2021/12/02 01:09:49;;;;;;;3.28;1.20;;;4.90;1.00;;;;;;5111511;27;20211;-85
2021/12/02 01:12:35;;;;;;;2.92;1.17;;;4.80;1.00;;;;;;5116961;27;20255;-83
2021/12/02 01:15:06;;;;;;;2.85;1.30;;;4.50;1.00;;;;;;5099925;27;20278;-84
2021/12/02 01:17:47;;;;;;;2.00;0.75;;;4.30;1.00;;;;;;5114981;27;20225;-84
2021/12/02 01:20:20;;;;;;;1.80;0.68;;;4.20;1.00;;;;;;5104718;27;20758;-84
2021/12/02 01:22:49;;;;;;;1.65;0.50;;;4.10;1.00;;;;;;5094056;27;20231;-85
2021/12/02 01:25:19;;;;;;;1.30;0.50;;;3.90;1.00;;;;;;5099366;27;20340;-85
2021/12/02 01:27:49;;;;;;;1.58;0.70;;;3.80;1.00;;;;;;5112812;27;20228;-85
2021/12/02 01:30:20;;;;;;;2.33;0.85;;;3.70;1.00;;;;;;5101307;27;20280;-85
2021/12/02 01:32:49;;;;;;;1.85;0.60;;;3.70;1.00;;;;;;5110387;27;21482;-85
2021/12/02 01:35:18;;;;;;;1.45;0.70;;;3.70;1.00;;;;;;5100199;27;21182;-84
2021/12/02 01:41:08;;;;;;;1.30;0.50;;;3.70;1.00;;;;;;5118156;27;20314;-85
2021/12/02 01:43:49;;;;;;;1.67;0.60;;;3.70;1.00;;;;;;5114700;27;21015;-84
2021/12/02 01:46:23;;;;;;;4.40;0.85;;;3.70;1.00;;;;;;5121927;27;20223;-85
2021/12/02 01:49:00;;;;;;;2.55;0.63;;;3.70;1.00;;;;;;5116835;27;20697;-86
2021/12/02 01:51:32;;;;;;;2.10;0.80;;;3.70;1.00;;;;;;5114283;27;20247;-86
2021/12/02 01:54:05;;;;;;;1.40;0.63;;;3.70;1.00;;;;;;5111567;27;20227;-85
2021/12/02 01:56:41;;;;;;;1.63;0.60;;;3.70;1.00;;;;;;5115648;27;20287;-84
2021/12/02 01:59:12;;;;;;;2.92;0.55;;;3.60;1.00;;;;;;5120179;27;20298;-85
2021/12/02 02:01:43;;;;;;;1.80;0.55;;;3.60;1.00;;;;;;5095637;27;20234;-84
2021/12/02 02:04:15;;;;;;;1.38;0.55;;;3.60;1.00;;;;;;5105450;27;21117;-85
2021/12/02 02:06:46;;;;;;;2.47;0.68;;;3.60;1.00;;;;;;5102177;27;20231;-84
2021/12/02 02:09:14;;;;;;;1.30;0.60;;;3.70;1.00;;;;;;5098752;27;20229;-86
2021/12/02 02:11:41;;;;;;;2.00;0.77;;;3.70;1.00;;;;;;5119767;27;20222;-85
2021/12/02 02:14:09;;;;;;;1.20;0.60;;;3.80;1.00;;;;;;5117758;27;20226;-85
2021/12/02 02:16:38;;;;;;;1.85;0.55;;;3.90;1.00;;;;;;5133194;27;21251;-86
2021/12/02 02:19:08;;;;;;;1.85;0.50;;;4.00;1.00;;;;;;5125075;27;21337;-85
2021/12/02 02:21:37;;;;;;;3.28;1.00;;;4.00;1.00;;;;;;5103021;27;20223;-85
2021/12/02 02:24:12;;;;;;;1.65;0.68;;;4.00;1.00;;;;;;5111078;27;20475;-84
2021/12/02 02:26:40;;;;;;;1.92;0.80;;;4.00;1.00;;;;;;5106613;27;20233;-85
2021/12/02 02:29:09;;;;;;;1.48;0.70;;;4.00;1.00;;;;;;5123419;27;20314;-85
2021/12/02 02:31:38;;;;;;;2.10;0.63;;;3.90;1.00;;;;;;5110971;27;20292;-84
2021/12/02 02:34:06;;;;;;;1.85;0.57;;;4.00;1.00;;;;;;5108914;27;20280;-86
2021/12/02 02:36:40;;;;;;;1.80;0.68;;;4.00;1.00;;;;;;5116942;27;20289;-84
2021/12/02 02:39:07;;;;;;;1.95;1.05;;;4.00;1.00;;;;;;5115006;27;20233;-85
2021/12/02 02:41:41;;;;;;;3.95;0.80;;;3.90;1.00;;;;;;5115079;27;20293;-85
2021/12/02 02:44:12;;;;;;;1.67;0.70;;;3.90;1.00;;;;;;5111882;27;20220;-84
2021/12/02 02:46:43;;;;;;;2.97;1.10;;;3.90;1.00;;;;;;5106583;27;20485;-85
2021/12/02 02:49:14;;;;;;;2.22;0.60;;;3.90;1.00;;;;;;5097419;27;20289;-85
2021/12/02 02:51:48;;;;;;;1.33;0.60;;;3.90;1.00;;;;;;5098592;27;20328;-85
2021/12/02 02:54:16;;;;;;;1.40;0.50;;;3.90;1.00;;;;;;5126360;27;20222;-85
2021/12/02 02:56:50;;;;;;;1.75;0.82;;;3.90;1.00;;;;;;5137492;27;20235;-86
2021/12/02 02:59:27;;;;;;;3.47;0.90;;;3.90;1.00;;;;;;5130389;27;20215;-86
2021/12/02 03:02:05;;;;;;;2.55;1.27;;;3.90;1.00;;;;;;5127882;27;20278;-86
2021/12/02 03:04:38;;;;;;;1.50;0.65;;;4.00;1.00;;;;;;5122940;27;20227;-85
2021/12/02 03:07:10;;;;;;;3.47;1.20;;;4.00;1.00;;;;;;5126715;27;20253;-85
2021/12/02 03:09:56;;;;;;;2.60;1.30;;;4.00;1.00;;;;;;5116842;27;20222;-85
2021/12/02 03:12:31;;;;;;;2.70;0.88;;;4.00;1.00;;;;;;5135911;27;20226;-84
2021/12/02 03:17:45;;;;;;;2.28;0.63;;;4.00;1.00;;;;;;5142837;27;20227;-86
2021/12/02 03:20:13;;;;;;;2.72;0.82;;;4.00;1.00;;;;;;5124806;27;20840;-85
2021/12/02 03:22:43;;;;;;;2.03;1.00;;;4.10;1.00;;;;;;5142828;27;20214;-86
2021/12/02 03:25:10;;;;;;;1.70;0.90;;;4.10;1.00;;;;;;5123461;27;20241;-85
2021/12/02 03:27:37;;;;;;;2.58;0.70;;;4.00;1.00;;;;;;5117614;27;20226;-86
2021/12/02 03:30:07;;;;;;;1.55;0.80;;;4.00;1.00;;;;;;5113957;27;20230;-86
2021/12/02 03:32:36;;;;;;;2.90;1.08;;;4.00;1.00;;;;;;5122307;27;20219;-84
2021/12/02 03:35:05;;;;;;;2.67;0.80;;;4.00;1.00;;;;;;5133851;27;20235;-86
2021/12/02 03:37:35;;;;;;;3.75;0.90;;;4.00;1.00;;;;;;5133444;27;20234;-85
2021/12/02 03:40:22;;;;;;;6.18;1.35;;;3.90;1.00;;;;;;5119661;27;20226;-84
2021/12/02 03:42:51;;;;;;;2.42;1.20;;;3.90;1.00;;;;;;5107204;27;20237;-85
2021/12/02 03:45:38;;;;;;;2.33;1.02;;;3.90;1.00;;;;;;5115961;27;20219;-85
2021/12/02 03:48:05;;;;;;;4.88;0.70;;;3.90;1.00;;;;;;5118129;27;20281;-84
2021/12/02 03:50:32;;;;;;;2.20;0.85;;;3.90;1.00;;;;;;5111356;27;20213;-84
2021/12/02 03:52:59;;;;;;;3.95;0.80;;;4.00;1.00;;;;;;5097815;27;20242;-85
2021/12/02 03:55:28;;;;;;;1.98;0.75;;;4.00;1.00;;;;;;5113118;27;20223;-84
2021/12/02 03:57:55;;;;;;;2.95;0.95;;;4.00;1.00;;;;;;5092209;27;20913;-86
2021/12/02 04:00:23;;;;;;;2.17;0.75;;;4.10;1.00;;;;;;5100625;27;20313;-85
2021/12/02 04:02:51;;;;;;;2.60;0.70;;;4.10;1.00;;;;;;5116597;27;20223;-86
2021/12/02 04:05:23;;;;;;;2.00;0.70;;;4.10;1.00;;;;;;5099978;27;20226;-84
2021/12/02 04:07:50;;;;;;;2.33;0.80;;;4.10;1.00;;;;;;5117786;27;20276;-85
2021/12/02 04:10:18;;;;;;;4.78;0.70;;;4.10;1.00;;;;;;5100911;27;20327;-85
2021/12/02 04:12:55;;;;;;;1.88;1.25;;;4.10;1.00;;;;;;5120359;27;20219;-84
2021/12/02 04:15:28;;;;;;;2.92;0.90;;;4.10;1.00;;;;;;5122477;27;20229;-86
2021/12/02 04:18:02;;;;;;;1.65;0.90;;;4.00;1.00;;;;;;5106471;27;20223;-85
2021/12/02 04:20:29;;;;;;;2.10;1.05;;;4.00;1.00;;;;;;5131472;27;20246;-85
2021/12/02 04:22:57;;;;;;;2.10;0.60;;;4.00;1.00;;;;;;5133202;27;20269;-84
2021/12/02 04:25:26;;;;;;;3.38;0.80;;;4.00;1.00;;;;;;5120035;27;20220;-84
2021/12/02 04:27:55;;;;;;;2.30;0.68;;;4.00;1.00;;;;;;5118068;27;20288;-85
2021/12/02 04:30:25;;;;;;;2.00;0.90;;;3.90;1.00;;;;;;5118302;27;20230;-87
2021/12/02 04:32:53;;;;;;;4.35;0.90;;;3.90;1.00;;;;;;5106362;27;20297;-87
2021/12/02 04:35:21;;;;;;;1.73;0.65;;;3.90;1.00;;;;;;5102050;27;20229;-85
2021/12/02 04:37:51;;;;;;;2.45;0.90;;;3.90;1.00;;;;;;5124702;27;20430;-85
2021/12/02 04:40:20;;;;;;;3.47;1.20;;;3.90;1.00;;;;;;5115248;27;20229;-84
2021/12/02 04:42:48;;;;;;;2.28;0.63;;;3.90;1.00;;;;;;5120582;27;20256;-86
2021/12/02 04:45:20;;;;;;;2.55;0.85;;;3.90;1.00;;;;;;5135102;27;20215;-85
2021/12/02 04:47:48;;;;;;;2.55;0.88;;;3.80;1.00;;;;;;5137505;27;20234;-84
2021/12/02 04:50:15;;;;;;;2.25;0.88;;;3.80;1.00;;;;;;5134050;27;20223;-86
2021/12/02 04:52:42;;;;;;;3.58;1.35;;;3.80;1.00;;;;;;5130728;27;20227;-86
2021/12/02 04:55:10;;;;;;;3.95;1.88;;;3.80;1.00;;;;;;5130412;27;20223;-85
2021/12/02 04:57:37;;;;;;;3.33;1.23;;;3.70;1.00;;;;;;5118299;27;20253;-86
2021/12/02 05:00:10;;;;;;;3.75;1.17;;;3.70;1.00;;;;;;5118906;27;20257;-86
2021/12/02 05:02:40;;;;;;;3.60;1.02;;;3.70;1.00;;;;;;5134484;27;20279;-86
2021/12/02 05:05:12;;;;;;;3.60;0.90;;;3.70;1.00;;;;;;5134910;27;20215;-86
2021/12/02 05:07:41;;;;;;;1.92;1.00;;;3.70;1.00;;;;;;5115623;27;20235;-85
2021/12/02 05:10:11;;;;;;;1.60;0.90;;;3.70;1.00;;;;;;5134858;27;20227;-84
2021/12/02 05:12:41;;;;;;;3.50;1.10;;;3.60;1.00;;;;;;5133756;27;20231;-84
2021/12/02 05:15:09;;;;;;;4.55;1.17;;;3.60;1.00;;;;;;5135801;27;20215;-84
2021/12/02 05:17:37;;;;;;;2.50;0.90;;;3.60;1.00;;;;;;5129813;27;20237;-84
2021/12/02 05:20:07;;;;;;;1.92;0.80;;;3.60;1.00;;;;;;5111492;27;20291;-83
2021/12/02 05:22:35;;;;;;;2.15;1.10;;;3.60;1.00;;;;;;5106846;27;20274;-85
2021/12/02 05:25:09;;;;;;;1.42;0.90;;;3.60;1.00;;;;;;5122776;27;20209;-88
2021/12/02 05:27:38;;;;;;;4.40;1.67;;;3.60;1.00;;;;;;5086863;27;20228;-86
2021/12/02 05:30:08;;;;;;;2.42;0.70;;;3.60;1.00;;;;;;5102257;28;20212;-85
2021/12/02 05:32:36;;;;;;;2.03;0.93;;;3.50;1.00;;;;;;5084688;28;20224;-87
2021/12/02 05:35:04;;;;;;;3.17;1.00;;;3.50;1.00;;;;;;5099687;28;20224;-85
2021/12/02 05:37:33;;;;;;;2.22;1.05;;;3.50;1.00;;;;;;5097695;28;20234;-84
2021/12/02 05:40:02;;;;;;;2.15;0.70;;;3.40;1.00;;;;;;5089840;28;20219;-86
2021/12/02 05:42:30;;;;;;;1.80;0.80;;;3.40;1.00;;;;;;5087047;28;20224;-84
2021/12/02 05:44:58;;;;;;;2.28;1.00;;;3.40;1.00;;;;;;5078394;28;20231;-83
2021/12/02 05:47:32;;;;;;;1.77;0.70;;;3.40;1.00;;;;;;5078170;28;21614;-80
2021/12/02 05:50:02;;;;;;;3.28;1.30;;;3.40;1.00;;;;;;5095819;28;20234;-82
2021/12/02 05:52:47;;;;;;;2.08;0.95;;;3.40;1.00;;;;;;5089384;28;20683;-84
2021/12/02 06:07:04;;;;;;;1.63;1.13;;;3.50;1.00;;;;;;5092029;28;20231;-83
2021/12/02 06:09:34;;;;;;;2.38;0.90;;;3.50;1.00;;;;;;5068368;28;20438;-80
2021/12/02 06:12:01;;;;;;;3.38;0.93;;;3.50;1.00;;;;;;5091662;28;20230;-81
2021/12/02 06:14:37;;;;;;;1.35;0.70;;;3.60;1.00;;;;;;5079867;28;20296;-84
2021/12/02 06:17:08;;;;;;;5.78;1.50;;;3.60;1.00;;;;;;5080848;28;20232;-84
2021/12/02 06:19:37;;;;;;;2.90;0.95;;;3.60;1.00;;;;;;5071201;28;20230;-85
2021/12/02 06:22:16;;;;;;;4.38;1.27;;;3.60;1.00;;;;;;5068996;28;20225;-84
2021/12/02 06:24:48;;;;;;;2.22;0.80;;;3.60;1.00;;;;;;5076212;28;20224;-84
2021/12/02 06:27:17;;;;;;;5.55;3.10;;;3.60;1.00;;;;;;5059123;28;20243;-83
2021/12/02 06:29:47;;;;;;;3.45;1.20;;;3.60;1.00;;;;;;5068188;28;24964;-80
2021/12/02 06:32:14;;;;;;;6.07;1.77;;;3.60;1.00;;;;;;5084984;28;20251;-86
2021/12/02 06:34:41;;;;;;;3.15;1.20;;;3.60;1.00;;;;;;5070090;28;20331;-83
2021/12/02 06:37:08;;;;;;;2.25;1.10;;;3.60;1.00;;;;;;5067511;28;20369;-83
2021/12/02 06:39:56;;;;;;;1.58;0.98;;;3.50;1.00;;;;;;5053452;28;23146;-82
2021/12/02 06:42:23;;;;;;;2.85;1.65;;;3.50;1.00;;;;;;5072195;28;20220;-79
2021/12/02 06:44:52;;;;;;;1.95;1.25;;;3.40;1.00;;;;;;5081218;28;20304;-80
2021/12/02 06:47:26;;;;;;;2.50;1.10;;;3.40;1.00;;;;;;5083779;28;20893;-82
2021/12/02 06:49:53;;;;;;;2.05;0.82;;;3.40;1.00;;;;;;5075480;28;20224;-81
2021/12/02 06:52:23;;;;;;;2.05;1.20;;;3.40;1.00;;;;;;5079121;28;20220;-79
2021/12/02 06:54:53;;;;;;;4.30;3.15;;;3.40;1.00;;;;;;5075261;28;20243;-79
2021/12/02 06:57:22;;;;;;;4.15;1.17;;;3.40;1.00;;;;;;5080123;28;20220;-81
2021/12/02 06:59:49;;;;;;;3.20;1.08;;;3.40;1.00;;;;;;5081348;28;20266;-81
2021/12/02 07:02:18;;;;;;;5.70;1.52;;;3.30;1.00;;;;;;5092795;28;20236;-80
2021/12/02 07:04:45;;;;;;;2.72;1.60;;;3.30;1.00;;;;;;5091519;28;20228;-78
2021/12/02 07:07:14;;;;;;;2.47;1.10;;;3.30;1.00;;;;;;5082081;28;20274;-81
2021/12/02 07:09:42;;;;;;;2.40;1.20;;;3.20;1.00;;;;;;5070361;28;20230;-81
2021/12/02 07:12:13;;;;;;;2.65;1.40;;;3.20;1.00;;;;;;5077979;28;20327;-80
2021/12/02 07:14:49;;;;;;;2.92;1.25;;;3.20;1.00;;;;;;5062610;28;20245;-80
2021/12/02 07:17:17;;;;;;;3.50;1.33;;;3.20;1.00;;;;;;5078276;28;20228;-80
2021/12/02 07:19:44;;;;;;;2.45;1.23;;;3.10;1.00;;;;;;5100490;28;20216;-80
2021/12/02 07:22:14;;;;;;;2.78;1.25;;;3.10;1.00;;;;;;5107267;28;20212;-79
2021/12/02 07:24:41;;;;;;;2.83;1.30;;;3.10;1.00;;;;;;5107136;27;20256;-78
2021/12/02 07:27:09;;;;;;;3.65;1.30;;;3.10;1.00;;;;;;5107159;28;20218;-79
2021/12/02 07:29:39;;;;;;;2.58;1.02;;;3.10;1.00;;;;;;5107966;28;20229;-78
2021/12/02 07:32:09;;;;;;;4.40;1.42;;;3.10;1.00;;;;;;5110187;27;20267;-79
2021/12/02 07:34:37;;;;;;;2.90;1.70;;;3.20;1.00;;;;;;5107626;27;20208;-78
2021/12/02 07:37:07;;;;;;;4.68;1.67;;;3.20;1.00;;;;;;5098069;28;20219;-79
2021/12/02 07:39:34;;;;;;;3.70;1.65;;;3.20;1.00;;;;;;5096246;27;20216;-80
2021/12/02 07:42:02;;;;;;;2.75;1.38;;;3.10;1.00;;;;;;5098296;28;20294;-79
2021/12/02 07:44:30;;;;;;;5.10;1.45;;;3.10;1.00;;;;;;5109570;27;20228;-79
2021/12/02 07:46:58;;;;;;;3.30;1.70;;;3.10;1.00;;;;;;5113782;27;20200;-78
2021/12/02 07:49:25;;;;;;;2.58;1.08;;;3.10;1.00;;;;;;5090242;28;20216;-79
2021/12/02 07:51:58;;;;;;;2.25;1.00;;;3.10;1.00;;;;;;5095986;27;20269;-79
2021/12/02 07:54:37;;;;;;;2.13;1.40;;;3.10;1.00;;;;;;5112059;27;20220;-78
2021/12/02 07:57:05;;;;;;;2.92;1.60;;;3.20;1.00;;;;;;5085962;27;20216;-77
2021/12/02 07:59:35;;;;;;;1.70;0.95;;;3.30;1.00;;;;;;5088344;28;20228;-80
2021/12/02 08:02:02;;;;;;;3.40;1.17;;;3.40;1.00;;;;;;5106643;27;20212;-77
2021/12/02 08:04:31;;;;;;;3.33;1.30;;;3.40;1.00;;;;;;5098535;27;20217;-77
2021/12/02 08:06:58;;;;;;;3.75;1.17;;;3.40;1.00;;;;;;5097639;28;20319;-78
2021/12/02 08:09:27;;;;;;;2.45;1.25;;;3.40;1.00;;;;;;5077317;28;20240;-80
2021/12/02 08:11:58;;;;;;;2.55;1.00;;;3.50;1.00;;;;;;5079692;28;20296;-81
2021/12/02 08:14:25;;;;;;;4.35;1.20;;;3.50;1.00;;;;;;5075056;28;20320;-78
2021/12/02 08:16:54;;;;;;;3.10;1.58;;;3.50;1.00;;;;;;5079591;28;20223;-76
2021/12/02 08:19:21;;;;;;;2.80;1.35;;;3.50;1.00;;;;;;5084092;28;20283;-78
2021/12/02 08:21:50;;;;;;;1.90;1.23;;;3.60;1.00;;;;;;5083775;28;20232;-76
2021/12/02 08:24:21;;;;;;;2.15;1.35;;;3.50;1.00;;;;;;5081384;28;20221;-77
2021/12/02 08:26:50;;;;;;;1.50;1.00;;;3.50;1.00;;;;;;5075887;28;20280;-78
2021/12/02 08:29:17;;;;;;;2.75;1.17;;;3.50;1.00;;;;;;5075072;28;20228;-78
2021/12/02 08:31:46;;;;;;;2.85;1.55;;;3.50;1.00;;;;;;5074139;28;20212;-78
2021/12/02 08:34:16;;;;;;;2.47;1.02;;;3.50;1.00;;;;;;5077037;28;20228;-78
2021/12/02 08:36:46;;;;;;;4.78;1.25;;;3.40;1.00;;;;;;5057809;28;21077;-79
2021/12/02 08:39:18;;;;;;;3.75;1.00;;;3.40;1.00;;;;;;5077058;28;20449;-80
2021/12/02 08:41:48;;;;;;;1.98;1.20;;;3.40;1.00;;;;;;5073652;28;20781;-78
2021/12/02 08:44:16;;;;;;;5.95;1.38;;;3.40;1.00;;;;;;5075688;28;20361;-78
2021/12/02 08:46:43;;;;;;;2.53;1.30;;;3.40;1.00;;;;;;5066397;28;20295;-76
2021/12/02 08:49:10;;;;;;;4.93;1.35;;;3.50;1.00;;;;;;5095595;28;20287;-77
2021/12/02 08:51:39;;;;;;;3.67;1.60;;;3.40;1.00;;;;;;5078446;28;20229;-77
2021/12/02 08:54:18;;;;;;;4.10;1.60;;;3.50;1.00;;;;;;5055008;28;20235;-77
2021/12/02 08:56:45;;;;;;;2.75;1.50;;;3.50;1.00;;;;;;5059013;28;20228;-76
2021/12/02 08:59:12;;;;;;;3.10;1.00;;;3.50;1.00;;;;;;5070604;28;20227;-77
2021/12/02 09:01:39;;;;;;;3.25;1.10;;;3.40;1.00;;;;;;5071057;28;20267;-77
2021/12/02 09:04:06;;;;;;;2.65;1.30;;;3.40;1.00;;;;;;5057067;28;20229;-77
2021/12/02 09:06:33;;;;;;;1.85;0.90;;;3.40;1.00;;;;;;5075072;28;21105;-78
2021/12/02 09:09:01;;;;;;;2.67;1.80;;;3.40;1.00;;;;;;5073785;28;20250;-78
2021/12/02 09:11:30;;;;;;;1.95;0.98;;;3.40;1.00;;;;;;5070740;28;20279;-77
2021/12/02 09:13:58;;;;;;;1.80;0.80;;;3.30;1.00;;;;;;5053559;28;20380;-78
2021/12/02 09:16:25;;;;;;;5.03;1.40;;;3.40;1.00;;;;;;5056061;28;20240;-78
2021/12/02 09:18:53;;;;;;;2.45;1.25;;;3.60;1.00;;;;;;5057606;28;20228;-77
2021/12/02 09:21:20;;;;;;;2.15;1.40;;;3.80;1.00;;;;;;5070495;28;20224;-78
2021/12/02 09:23:47;;;;;;;2.88;1.60;;;3.90;1.00;;;;;;5074223;28;20235;-79
2021/12/02 09:26:16;;;;;;;5.85;1.63;;;4.20;1.00;;;;;;5067028;28;20252;-78
2021/12/02 09:28:50;;;;;;;2.83;0.80;;;4.20;1.00;;;;;;5079457;28;20702;-77
2021/12/02 09:31:17;;;;;;;1.90;0.80;;;4.20;1.00;;;;;;5050871;28;20228;-79
2021/12/02 09:33:44;;;;;;;2.00;0.90;;;4.60;1.00;;;;;;5075014;28;23472;-78
2021/12/02 09:36:11;;;;;;;2.45;1.40;;;4.90;1.00;;;;;;5058242;28;20267;-78
2021/12/02 09:38:37;;;;;;;2.03;1.00;;;5.00;1.00;;;;;;5073671;28;20240;-76
2021/12/02 09:41:04;;;;;;;2.80;1.02;;;5.40;1.00;;;;;;5050702;28;20721;-76
2021/12/02 09:43:33;;;;;;;3.95;1.50;;;5.40;1.00;;;;;;5075301;28;20333;-79
2021/12/02 09:45:59;;;;;;;2.30;1.23;;;5.60;1.00;;;;;;5073757;28;20980;-76
2021/12/02 09:48:28;;;;;;;3.17;1.67;;;6.10;1.00;;;;;;5060006;28;20878;-77
2021/12/02 09:51:03;;;;;;;2.60;1.30;;;6.50;1.00;;;;;;5073367;28;20231;-78
2021/12/02 09:53:34;;;;;;;3.00;1.27;;;6.50;1.00;;;;;;5085248;28;20225;-80
2021/12/02 09:56:10;;;;;;;4.13;1.15;;;6.00;1.00;;;;;;5083130;28;20221;-77
2021/12/02 09:58:39;;;;;;;3.88;1.10;;;6.00;1.00;;;;;;5083826;28;20239;-78
2021/12/02 10:01:09;;;;;;;1.75;1.02;;;5.80;1.00;;;;;;5080670;28;20228;-79
2021/12/02 10:03:38;;;;;;;2.58;1.20;;;5.40;1.00;;;;;;5079455;28;20236;-79
2021/12/02 10:06:09;;;;;;;3.85;1.17;;;5.20;1.00;;;;;;5061759;28;20252;-80
2021/12/02 10:08:45;;;;;;;2.00;1.02;;;5.30;1.00;;;;;;5062050;28;20284;-78
2021/12/02 10:11:16;;;;;;;3.40;1.33;;;5.80;1.00;;;;;;5071264;28;21166;-80
2021/12/02 10:13:47;;;;;;;4.32;1.90;;;6.20;1.00;;;;;;5074444;28;20248;-79
2021/12/02 10:16:20;;;;;;;2.85;1.45;;;6.30;1.00;;;;;;5074543;28;21122;-80
2021/12/02 10:18:56;;;;;;;2.80;1.23;;;6.10;1.00;;;;;;5074776;28;20227;-79
2021/12/02 10:21:28;;;;;;;2.75;1.70;;;5.80;1.00;;;;;;5078216;28;20298;-80
2021/12/02 10:23:55;;;;;;;2.67;1.20;;;5.80;1.00;;;;;;5078673;28;20228;-78
2021/12/02 10:26:23;;;;;;;3.00;1.23;;;6.10;1.00;;;;;;5077843;28;20245;-78
2021/12/02 10:28:52;;;;;;;3.08;0.98;;;6.70;1.00;;;;;;5081660;28;20320;-79
2021/12/02 10:31:23;;;;;;;2.20;0.98;;;6.70;1.00;;;;;;5064057;28;20327;-77
2021/12/02 10:33:53;;;;;;;6.00;1.45;;;6.30;1.00;;;;;;5056441;28;20327;-78
2021/12/02 10:36:32;;;;;;;1.98;1.20;;;6.30;1.00;;;;;;5076430;28;20232;-79
2021/12/02 10:39:01;;;;;;;4.05;1.25;;;6.80;1.00;;;;;;5067733;28;21768;-79
2021/12/02 10:41:30;;;;;;;2.60;1.33;;;7.00;1.00;;;;;;5063737;28;20255;-80
2021/12/02 10:44:09;;;;;;;2.95;1.10;;;7.00;1.00;;;;;;5080336;28;20228;-79
2021/12/02 10:46:39;;;;;;;3.15;1.08;;;6.90;1.00;;;;;;5059207;28;21166;-80
2021/12/02 10:49:15;;;;;;;3.92;0.93;;;6.80;1.00;;;;;;5069849;28;20224;-78
2021/12/02 10:51:45;;;;;;;5.53;1.60;;;7.00;1.00;;;;;;5091933;28;20207;-78
2021/12/02 10:54:14;;;;;;;3.90;1.02;;;7.30;1.00;;;;;;5079667;28;20223;-77
2021/12/02 10:56:44;;;;;;;4.13;2.00;;;7.40;1.00;;;;;;5080560;28;20270;-79
2021/12/02 10:59:35;;;;;;;3.92;2.03;;;8.10;1.00;;;;;;5079568;28;20308;-78
2021/12/02 11:02:06;;;;;;;4.35;1.40;;;8.20;1.00;;;;;;5070520;28;20240;-79
2021/12/02 11:04:41;;;;;;;3.20;1.10;;;8.00;1.00;;;;;;5075786;28;20664;-78
2021/12/02 11:07:12;;;;;;;2.83;1.10;;;8.40;1.00;;;;;;5077722;28;20867;-79
2021/12/02 11:09:40;;;;;;;3.10;1.20;;;8.50;1.00;;;;;;5072354;28;20302;-78
2021/12/02 11:12:27;;;;;;;3.65;1.80;;;8.30;1.00;;;;;;5077302;28;20225;-76
2021/12/02 11:15:13;;;;;;;3.15;1.20;;;8.60;1.00;;;;;;5068849;28;20226;-80
2021/12/02 11:17:44;;;;;;;4.10;1.40;;;9.10;1.00;;;;;;5057916;28;20227;-78
2021/12/02 11:20:15;;;;;;;4.25;1.55;;;8.90;1.00;;;;;;5080471;28;20227;-79
2021/12/02 11:22:42;;;;;;;2.90;1.70;;;8.50;1.00;;;;;;5056385;28;20229;-80
2021/12/02 11:25:11;;;;;;;2.40;1.00;;;8.70;1.00;;;;;;5072586;28;20339;-80
2021/12/02 11:27:40;;;;;;;4.70;1.40;;;8.50;1.00;;;;;;5066605;28;21036;-81
2021/12/02 11:30:17;;;;;;;3.22;1.40;;;8.40;1.00;;;;;;5094085;28;20834;-80
2021/12/02 11:32:47;;;;;;;2.83;1.20;;;8.60;1.00;;;;;;5091459;28;20257;-77
2021/12/02 11:35:24;;;;;;;4.80;1.15;;;8.60;1.00;;;;;;5091802;28;20217;-80
2021/12/02 11:37:54;;;;;;;3.85;1.42;;;9.30;1.00;;;;;;5097559;28;20202;-79
2021/12/02 11:40:28;;;;;;;4.75;2.05;;;9.80;1.00;;;;;;5097629;28;20234;-78
2021/12/02 11:42:56;;;;;;;4.07;1.25;;;9.50;1.00;;;;;;5078748;28;20230;-76
2021/12/02 11:45:27;;;;;;;1.85;0.90;;;9.40;1.00;;;;;;5099086;27;20213;-77
2021/12/02 11:47:54;;;;;;;4.10;1.60;;;9.90;1.00;;;;;;5096003;27;20220;-77
2021/12/02 11:50:24;;;;;;;2.67;1.48;;;10.10;1.00;;;;;;5090312;28;20234;-78
2021/12/02 11:52:51;;;;;;;1.90;1.20;;;10.30;1.00;;;;;;5093096;27;20215;-77
2021/12/02 11:55:20;;;;;;;2.47;1.40;;;11.00;1.00;;;;;;5094287;28;20456;-77
2021/12/02 11:57:49;;;;;;;4.50;2.27;;;11.70;1.00;;;;;;5084331;28;20284;-78
2021/12/02 12:00:21;;;;;;;4.00;1.60;;;12.60;1.00;;;;;;5087691;28;21648;-78
2021/12/02 12:02:55;;;;;;;4.67;1.50;;;12.50;1.00;;;;;;5078037;28;20461;-79
2021/12/02 12:05:26;;;;;;;5.37;1.50;;;11.80;1.00;;;;;;5088043;28;20426;-80
2021/12/02 12:07:54;;;;;;;4.17;1.00;;;11.70;1.00;;;;;;5087687;28;20435;-76
2021/12/02 12:10:25;;;;;;;5.70;1.75;;;11.50;1.00;;;;;;5089207;28;20476;-81
2021/12/02 12:12:53;;;;;;;3.20;1.20;;;11.10;1.00;;;;;;5083605;28;20225;-80
2021/12/02 12:15:41;;;;;;;2.73;1.20;;;11.00;1.00;;;;;;5078891;28;20281;-81
2021/12/02 12:18:12;;;;;;;4.30;2.97;;;10.90;1.00;;;;;;5077323;28;20475;-79
2021/12/02 12:21:00;;;;;;;6.40;2.87;;;11.70;1.00;;;;;;5075225;28;20437;-81
2021/12/02 12:23:35;;;;;;;2.47;1.03;;;12.60;1.00;;;;;;5080012;28;21001;-78
2021/12/02 12:26:24;;;;;;;3.67;2.30;;;13.70;1.00;;;;;;5080799;28;20751;-77
2021/12/02 12:29:18;;;;;;;3.10;1.40;;;14.00;1.00;;;;;;5082183;28;20478;-80
2021/12/02 12:35:38;;;;;;;3.80;1.47;;;14.70;1.00;;;;;;5073992;28;20449;-78
2021/12/02 12:38:22;;;;;;;3.60;1.20;;;15.50;1.00;;;;;;5073229;28;20431;-80
2021/12/02 12:40:50;;;;;;;3.20;1.20;;;15.60;1.00;;;;;;5095360;28;20488;-79
2021/12/02 12:43:35;;;;;;;2.20;1.30;;;15.30;1.00;;;;;;5076238;28;20439;-78
2021/12/02 12:46:11;;;;;;;4.80;1.13;;;14.30;1.00;;;;;;5078354;28;20420;-79
2021/12/02 12:48:38;;;;;;;4.20;1.37;;;13.00;1.00;;;;;;5073011;28;20486;-80
2021/12/02 12:51:23;;;;;;;3.83;1.20;;;11.80;1.00;;;;;;5076434;28;20413;-79
2021/12/02 12:53:52;;;;;;;9.85;1.60;;;10.10;1.00;;;;;;5072499;28;20281;-81
2021/12/02 12:56:25;;;;;;;2.60;1.00;;;10.50;1.00;;;;;;5056968;28;20278;-79
2021/12/02 12:59:17;;;;;;;4.32;2.17;;;11.30;1.00;;;;;;5073310;28;20217;-80
2021/12/02 13:01:58;;;;;;;3.35;1.45;;;11.30;1.00;;;;;;5074307;28;20462;-79
2021/12/02 13:04:27;;;;;;;3.72;1.10;;;10.40;1.00;;;;;;5074801;28;20229;-78
2021/12/02 13:07:14;;;;;;;2.28;1.40;;;9.00;1.00;;;;;;5088637;28;20288;-78
2021/12/02 13:09:52;;;;;;;2.85;1.10;;;7.70;1.00;;;;;;5088329;28;20251;-78
2021/12/02 13:12:26;;;;;;;5.22;1.52;;;6.50;1.00;;;;;;5081813;28;20726;-76
2021/12/02 13:14:54;;;;;;;3.20;1.40;;;6.10;1.00;;;;;;5090239;28;20229;-78
2021/12/02 13:17:40;;;;;;;3.72;1.70;;;5.80;1.00;;;;;;5088917;28;21207;-78
2021/12/02 13:20:23;;;;;;;7.35;1.70;;;5.60;1.00;;;;;;5088012;28;20301;-77
2021/12/02 13:23:31;;;;;;;2.80;1.70;;;5.30;1.00;;;;;;5086703;28;20220;-78
2021/12/02 13:26:10;;;;;;;2.67;1.10;;;5.10;1.00;;;;;;5070617;28;20350;-77
2021/12/02 13:28:41;;;;;;;7.30;2.47;;;5.00;1.00;;;;;;5071208;28;20216;-77
2021/12/02 13:31:14;;;;;;;3.88;1.55;;;4.90;1.00;;;;;;5082264;28;20239;-78
2021/12/02 13:33:44;;;;;;;2.92;1.30;;;4.90;1.00;;;;;;5068611;28;20228;-77
2021/12/02 13:36:15;;;;;;;4.07;1.85;;;4.90;1.00;;;;;;5070000;28;20945;-79
2021/12/02 13:38:57;;;;;;;2.55;1.38;;;4.90;1.00;;;;;;5064829;28;20224;-78
2021/12/02 13:41:24;;;;;;;4.13;1.70;;;4.80;1.00;;;;;;5085778;28;20321;-78
2021/12/02 13:43:53;;;;;;;3.35;1.50;;;4.90;1.00;;;;;;5084643;28;20223;-78
2021/12/02 13:46:32;;;;;;;3.67;1.42;;;4.80;1.00;;;;;;5065093;28;20224;-79
2021/12/02 13:49:02;;;;;;;3.63;1.30;;;4.70;1.00;;;;;;5056417;28;20256;-77
2021/12/02 13:54:26;;;;;;;4.00;1.38;;;4.60;1.00;;;;;;5076332;28;20207;-80
2021/12/02 13:56:56;;;;;;;3.97;1.70;;;4.50;1.00;;;;;;5059428;28;20225;-79